createdAt,value
2017-01-22T00:00:03.091Z,98.37
2017-01-22T00:01:11.739Z,98.28
2017-01-22T00:02:20.386Z,98.09
2017-01-22T00:03:29.034Z,98.47
2017-01-22T00:04:37.687Z,98.47
2017-01-22T00:05:46.337Z,98.47
2017-01-22T00:06:54.986Z,98.47
2017-01-22T00:08:03.637Z,98.28
2017-01-22T00:09:12.291Z,98.37
2017-01-22T00:10:20.936Z,98.28
2017-01-22T00:11:29.585Z,98.23
2017-01-22T00:12:38.234Z,98.18
2017-01-22T00:13:46.899Z,98.09
2017-01-22T00:14:55.547Z,98.28
2017-01-22T00:16:04.203Z,98.23
2017-01-22T00:17:12.849Z,98.23
2017-01-22T00:18:21.506Z,98.65
2017-01-22T00:19:30.156Z,98.23
2017-01-22T00:20:38.808Z,98.32
2017-01-22T00:21:47.452Z,98.13
2017-01-22T00:22:56.105Z,97.94
2017-01-22T00:24:04.754Z,98.04
2017-01-22T00:25:13.402Z,97.94
2017-01-22T00:26:22.049Z,98.32
2017-01-22T00:27:30.697Z,98.04
2017-01-22T00:28:39.347Z,98.23
2017-01-22T00:29:47.995Z,98.23
2017-01-22T00:30:56.646Z,98.23
2017-01-22T00:32:05.296Z,98.13
2017-01-22T00:33:13.940Z,97.94
2017-01-22T00:34:22.590Z,97.85
2017-01-22T00:35:31.240Z,98.23
2017-01-22T00:36:39.889Z,97.85
2017-01-22T00:37:48.535Z,98.13
2017-01-22T00:38:57.186Z,98.04
2017-01-22T00:40:05.836Z,97.85
2017-01-22T00:41:14.482Z,98.41
2017-01-22T00:42:23.129Z,97.85
2017-01-22T00:43:31.801Z,97.94
2017-01-22T00:44:40.452Z,98.23
2017-01-22T00:45:49.109Z,98.04
2017-01-22T00:46:57.756Z,97.85
2017-01-22T00:48:06.402Z,98.13
2017-01-22T00:49:15.050Z,98.41
2017-01-22T00:50:23.698Z,98.04
2017-01-22T00:51:32.347Z,98.23
2017-01-22T00:52:41.004Z,97.99
2017-01-22T00:53:49.648Z,97.52
2017-01-22T00:54:58.295Z,97.28
2017-01-22T00:56:06.942Z,97.28
2017-01-22T00:57:15.597Z,97.75
2017-01-22T00:58:24.242Z,97.56
2017-01-22T00:59:32.920Z,97.85
2017-01-22T01:00:41.596Z,97.66
2017-01-22T01:01:50.245Z,97.85
2017-01-22T01:02:58.896Z,97.75
2017-01-22T01:04:07.546Z,97.85
2017-01-22T01:05:16.201Z,97.75
2017-01-22T01:06:24.853Z,97.75
2017-01-22T01:07:33.509Z,97.38
2017-01-22T01:08:42.161Z,97.38
2017-01-22T01:09:50.812Z,97.85
2017-01-22T01:10:59.469Z,97.19
2017-01-22T01:12:08.145Z,97.28
2017-01-22T01:13:16.791Z,97.47
2017-01-22T01:14:25.445Z,97.75
2017-01-22T01:15:34.099Z,97.85
2017-01-22T01:16:42.776Z,97.66
2017-01-22T01:17:51.426Z,97.56
2017-01-22T01:19:00.076Z,97.47
2017-01-22T01:20:08.727Z,97.94
2017-01-22T01:21:17.379Z,97.66
2017-01-22T01:22:26.029Z,98.23
2017-01-22T01:23:34.679Z,98.6
2017-01-22T01:24:43.331Z,98.79
2017-01-22T01:25:51.982Z,98.7
2017-01-22T01:27:00.630Z,98.79
2017-01-22T01:28:09.282Z,98.32
2017-01-22T01:29:17.931Z,98.32
2017-01-22T01:30:26.580Z,99.08
2017-01-22T01:31:35.230Z,98.56
2017-01-22T01:32:43.875Z,98.47
2017-01-22T01:33:52.531Z,97.71
2017-01-22T01:35:01.197Z,97.52
2017-01-22T01:36:09.840Z,96.58
2017-01-22T01:37:18.493Z,95.73
2017-01-22T01:38:27.135Z,95.92
2017-01-22T01:39:35.786Z,96.3
2017-01-22T01:40:44.435Z,96.39
2017-01-22T01:41:53.083Z,96.48
2017-01-22T01:43:01.731Z,96.25
2017-01-22T01:44:10.385Z,96.62
2017-01-22T01:45:19.037Z,96.72
2017-01-22T01:46:27.698Z,96.91
2017-01-22T01:47:36.348Z,96.25
2017-01-22T01:48:45.002Z,96.62
2017-01-22T01:49:53.669Z,97.28
2017-01-22T01:51:02.318Z,97.38
2017-01-22T01:52:10.967Z,97.56
2017-01-22T01:53:19.615Z,97.47
2017-01-22T01:54:28.265Z,97.47
2017-01-22T01:55:36.912Z,97.19
2017-01-22T01:56:45.557Z,97.19
2017-01-22T01:57:54.207Z,97.28
2017-01-22T01:59:02.861Z,97.28
2017-01-22T02:00:11.506Z,97.38
2017-01-22T02:01:20.543Z,97.09
2017-01-22T02:02:29.194Z,97.38
2017-01-22T02:03:38.226Z,97.28
2017-01-22T02:04:46.873Z,96.72
2017-01-22T02:05:55.520Z,96.81
2017-01-22T02:07:04.169Z,97.56
2017-01-22T02:08:12.819Z,97.28
2017-01-22T02:09:21.464Z,97.19
2017-01-22T02:10:30.117Z,96.81
2017-01-22T02:11:38.776Z,96.72
2017-01-22T02:12:47.424Z,96.72
2017-01-22T02:13:56.071Z,97.28
2017-01-22T02:15:04.738Z,97.38
2017-01-22T02:16:13.392Z,97.38
2017-01-22T02:17:22.039Z,97.28
2017-01-22T02:18:30.681Z,97.19
2017-01-22T02:19:39.370Z,97.38
2017-01-22T02:20:48.021Z,97.66
2017-01-22T02:21:56.678Z,97.66
2017-01-22T02:23:05.330Z,97.38
2017-01-22T02:24:13.989Z,97.66
2017-01-22T02:25:22.637Z,97.38
2017-01-22T02:26:31.284Z,97.47
2017-01-22T02:27:39.930Z,97.66
2017-01-22T02:28:48.581Z,97.47
2017-01-22T02:29:57.226Z,96.53
2017-01-22T02:31:05.876Z,96.72
2017-01-22T02:32:14.524Z,96.34
2017-01-22T02:33:23.177Z,97.09
2017-01-22T02:34:31.830Z,97.47
2017-01-22T02:35:40.488Z,96.72
2017-01-22T02:36:49.137Z,96.62
2017-01-22T02:37:57.789Z,96.53
2017-01-22T02:39:06.437Z,97.75
2017-01-22T02:40:15.087Z,97.56
2017-01-22T02:41:23.732Z,97.28
2017-01-22T02:42:32.381Z,97.38
2017-01-22T02:43:41.032Z,97.47
2017-01-22T02:44:49.679Z,97.28
2017-01-22T02:45:58.373Z,97.38
2017-01-22T02:47:07.022Z,97.28
2017-01-22T02:48:15.678Z,97.85
2017-01-22T02:49:24.325Z,97.75
2017-01-22T02:50:32.976Z,97.38
2017-01-22T02:51:41.630Z,97
2017-01-22T02:52:50.275Z,96.34
2017-01-22T02:53:58.931Z,96.91
2017-01-22T02:55:07.580Z,96.62
2017-01-22T02:56:16.230Z,96.53
2017-01-22T02:57:24.879Z,96.91
2017-01-22T02:58:33.530Z,96.34
2017-01-22T02:59:42.181Z,96.72
2017-01-22T03:00:50.829Z,97.47
2017-01-22T03:01:59.473Z,97.94
2017-01-22T03:03:08.124Z,97.47
2017-01-22T03:04:16.773Z,96.72
2017-01-22T03:05:25.422Z,97.38
2017-01-22T03:06:34.089Z,97.66
2017-01-22T03:07:42.736Z,97.47
2017-01-22T03:08:51.387Z,98.04
2017-01-22T03:10:00.034Z,97.28
2017-01-22T03:11:08.686Z,97.66
2017-01-22T03:12:17.341Z,97.56
2017-01-22T03:13:25.988Z,97.38
2017-01-22T03:14:34.641Z,96.72
2017-01-22T03:15:43.287Z,96.72
2017-01-22T03:16:51.945Z,96.91
2017-01-22T03:18:00.593Z,97
2017-01-22T03:19:09.282Z,96.91
2017-01-22T03:20:17.934Z,96.53
2017-01-22T03:21:26.583Z,96.53
2017-01-22T03:22:35.235Z,97
2017-01-22T03:23:43.881Z,96.25
2017-01-22T03:24:52.529Z,96.25
2017-01-22T03:26:01.178Z,97.38
2017-01-22T03:27:09.832Z,97.94
2017-01-22T03:28:18.480Z,98.32
2017-01-22T03:29:27.128Z,98.13
2017-01-22T03:30:35.781Z,98.51
2017-01-22T03:31:44.427Z,97.75
2017-01-22T03:32:53.075Z,97.47
2017-01-22T03:34:01.721Z,97.47
2017-01-22T03:35:10.403Z,98.04
2017-01-22T03:36:19.050Z,97.19
2017-01-22T03:37:27.697Z,97.75
2017-01-22T03:38:36.349Z,97.38
2017-01-22T03:39:44.995Z,97.19
2017-01-22T03:40:53.646Z,97.38
2017-01-22T03:42:02.288Z,97.47
2017-01-22T03:43:10.943Z,97.28
2017-01-22T03:44:19.593Z,97.28
2017-01-22T03:45:28.240Z,97.47
2017-01-22T03:46:36.886Z,97.52
2017-01-22T03:47:45.545Z,97.61
2017-01-22T03:48:54.197Z,96.86
2017-01-22T03:50:02.846Z,96.81
2017-01-22T03:51:11.498Z,96.58
2017-01-22T03:52:20.146Z,96.34
2017-01-22T03:53:28.794Z,95.87
2017-01-22T03:54:37.441Z,95.78
2017-01-22T03:55:46.089Z,95.4
2017-01-22T03:56:54.734Z,95.78
2017-01-22T03:58:03.761Z,95.5
2017-01-22T03:59:12.420Z,95.97
2017-01-22T04:00:21.065Z,95.87
2017-01-22T04:01:29.714Z,95.21
2017-01-22T04:02:38.360Z,95.12
2017-01-22T04:03:47.009Z,95.35
2017-01-22T04:04:55.660Z,95.54
2017-01-22T04:06:04.307Z,95.73
2017-01-22T04:07:12.957Z,95.64
2017-01-22T04:08:21.607Z,96.53
2017-01-22T04:09:30.259Z,95.92
2017-01-22T04:10:38.908Z,95.73
2017-01-22T04:11:47.567Z,95.68
2017-01-22T04:12:56.215Z,95.54
2017-01-22T04:14:04.861Z,95.92
2017-01-22T04:15:13.508Z,95.64
2017-01-22T04:16:22.162Z,95.54
2017-01-22T04:17:30.819Z,96.11
2017-01-22T04:18:39.467Z,96.3
2017-01-22T04:19:48.120Z,95.54
2017-01-22T04:20:56.765Z,95.54
2017-01-22T04:22:05.418Z,95.73
2017-01-22T04:23:14.067Z,95.73
2017-01-22T04:24:22.713Z,95.54
2017-01-22T04:25:31.363Z,95.64
2017-01-22T04:26:40.014Z,95.73
2017-01-22T04:27:48.664Z,95.35
2017-01-22T04:28:57.309Z,95.64
2017-01-22T04:30:05.958Z,95.54
2017-01-22T04:31:14.605Z,96.48
2017-01-22T04:32:23.254Z,96.11
2017-01-22T04:33:31.904Z,96.3
2017-01-22T04:34:40.554Z,96.11
2017-01-22T04:35:49.196Z,96.48
2017-01-22T04:36:57.847Z,96.15
2017-01-22T04:38:06.874Z,96.3
2017-01-22T04:39:15.522Z,96.2
2017-01-22T04:40:24.173Z,96.15
2017-01-22T04:41:32.822Z,96.62
2017-01-22T04:42:41.464Z,96.62
2017-01-22T04:43:50.114Z,96.91
2017-01-22T04:44:58.769Z,96.62
2017-01-22T04:46:07.419Z,96.62
2017-01-22T04:47:16.065Z,96.53
2017-01-22T04:48:24.720Z,96.62
2017-01-22T04:49:33.373Z,96.15
2017-01-22T04:50:42.026Z,96.44
2017-01-22T04:51:50.699Z,95.97
2017-01-22T04:52:59.344Z,96.2
2017-01-22T04:54:07.991Z,96.3
2017-01-22T04:55:16.642Z,96.81
2017-01-22T04:56:25.289Z,97.47
2017-01-22T04:57:33.937Z,97.38
2017-01-22T04:58:42.586Z,97.94
2017-01-22T04:59:51.235Z,97.56
2017-01-22T05:00:59.881Z,97.28
2017-01-22T05:02:08.528Z,97.94
2017-01-22T05:03:17.176Z,98.23
2017-01-22T05:04:26.201Z,97.38
2017-01-22T05:05:34.848Z,96.72
2017-01-22T05:06:43.497Z,96.91
2017-01-22T05:07:52.145Z,96.62
2017-01-22T05:09:00.789Z,97.19
2017-01-22T05:10:09.434Z,97.75
2017-01-22T05:11:18.082Z,97.75
2017-01-22T05:12:26.729Z,97.66
2017-01-22T05:13:35.375Z,96.72
2017-01-22T05:14:44.027Z,96.62
2017-01-22T05:15:52.671Z,95.59
2017-01-22T05:17:01.362Z,96.25
2017-01-22T05:18:10.009Z,96.34
2017-01-22T05:19:18.654Z,95.97
2017-01-22T05:20:27.303Z,96.25
2017-01-22T05:21:35.943Z,96.06
2017-01-22T05:22:44.591Z,96.72
2017-01-22T05:23:53.241Z,96.62
2017-01-22T05:25:01.887Z,97
2017-01-22T05:26:10.530Z,96.15
2017-01-22T05:27:19.186Z,95.59
2017-01-22T05:28:27.828Z,96.06
2017-01-22T05:29:36.487Z,95.87
2017-01-22T05:30:45.137Z,95.59
2017-01-22T05:31:53.781Z,96.53
2017-01-22T05:33:02.432Z,96.34
2017-01-22T05:34:11.103Z,96.72
2017-01-22T05:35:19.746Z,97.38
2017-01-22T05:36:28.390Z,96.72
2017-01-22T05:37:37.035Z,96.53
2017-01-22T05:38:45.680Z,96.44
2017-01-22T05:39:54.713Z,96.06
2017-01-22T05:41:03.382Z,96.44
2017-01-22T05:42:12.028Z,96.34
2017-01-22T05:43:20.673Z,96.62
2017-01-22T05:44:29.328Z,96.44
2017-01-22T05:45:37.982Z,96.48
2017-01-22T05:46:46.628Z,96.62
2017-01-22T05:47:55.291Z,96.58
2017-01-22T05:49:03.942Z,96.34
2017-01-22T05:50:12.617Z,96.2
2017-01-22T05:51:21.267Z,96.11
2017-01-22T05:52:29.920Z,95.64
2017-01-22T05:53:38.571Z,95.35
2017-01-22T05:54:47.216Z,96.01
2017-01-22T05:55:55.869Z,96.58
2017-01-22T05:57:04.546Z,96.11
2017-01-22T05:58:13.201Z,96.11
2017-01-22T05:59:21.847Z,96.2
2017-01-22T06:00:30.492Z,95.92
2017-01-22T06:01:39.151Z,96.95
2017-01-22T06:02:47.802Z,97.8
2017-01-22T06:03:56.446Z,97.52
2017-01-22T06:05:05.095Z,97.33
2017-01-22T06:06:13.750Z,97.52
2017-01-22T06:07:22.400Z,96.77
2017-01-22T06:08:31.048Z,96.95
2017-01-22T06:09:39.693Z,96.48
2017-01-22T06:10:48.351Z,95.64
2017-01-22T06:11:56.995Z,95.54
2017-01-22T06:13:05.645Z,95.35
2017-01-22T06:14:14.294Z,95.54
2017-01-22T06:15:22.939Z,95.54
2017-01-22T06:16:31.586Z,95.64
2017-01-22T06:17:40.230Z,95.82
2017-01-22T06:18:48.872Z,96.2
2017-01-22T06:19:57.518Z,96.39
2017-01-22T06:21:06.163Z,96.11
2017-01-22T06:22:14.814Z,96.11
2017-01-22T06:23:23.458Z,96.3
2017-01-22T06:24:32.148Z,96.11
2017-01-22T06:25:40.799Z,96.11
2017-01-22T06:26:49.448Z,96.2
2017-01-22T06:27:58.098Z,95.64
2017-01-22T06:29:06.742Z,96.11
2017-01-22T06:30:15.389Z,96.11
2017-01-22T06:31:24.037Z,96.3
2017-01-22T06:32:32.709Z,95.92
2017-01-22T06:33:41.370Z,95.64
2017-01-22T06:34:50.019Z,95.73
2017-01-22T06:35:58.691Z,96.01
2017-01-22T06:37:07.727Z,96.39
2017-01-22T06:38:16.372Z,96.2
2017-01-22T06:39:25.019Z,96.2
2017-01-22T06:40:33.665Z,96.67
2017-01-22T06:41:42.311Z,96.01
2017-01-22T06:42:51.339Z,95.54
2017-01-22T06:43:59.988Z,95.54
2017-01-22T06:45:08.639Z,95.54
2017-01-22T06:46:17.286Z,95.82
2017-01-22T06:47:25.934Z,95.64
2017-01-22T06:48:34.584Z,95.45
2017-01-22T06:49:43.229Z,95.16
2017-01-22T06:50:51.892Z,95.73
2017-01-22T06:52:00.536Z,95.35
2017-01-22T06:53:09.182Z,95.26
2017-01-22T06:54:17.829Z,96.3
2017-01-22T06:55:26.481Z,95.54
2017-01-22T06:56:35.130Z,95.35
2017-01-22T06:57:43.771Z,95.35
2017-01-22T06:58:52.421Z,95.73
2017-01-22T07:00:01.068Z,95.54
2017-01-22T07:01:09.719Z,95.73
2017-01-22T07:02:18.368Z,95.26
2017-01-22T07:03:27.017Z,95.26
2017-01-22T07:04:35.672Z,95.16
2017-01-22T07:05:44.323Z,95.92
2017-01-22T07:06:52.973Z,95.35
2017-01-22T07:08:01.645Z,95.16
2017-01-22T07:09:10.305Z,95.26
2017-01-22T07:10:18.949Z,95.26
2017-01-22T07:11:27.627Z,95.26
2017-01-22T07:12:36.276Z,95.26
2017-01-22T07:13:44.927Z,95.54
2017-01-22T07:14:53.567Z,95.35
2017-01-22T07:16:02.212Z,95.73
2017-01-22T07:17:10.864Z,95.54
2017-01-22T07:18:19.512Z,95.92
2017-01-22T07:19:28.158Z,95.35
2017-01-22T07:20:36.801Z,95.82
2017-01-22T07:21:45.447Z,95.54
2017-01-22T07:22:54.116Z,95.54
2017-01-22T07:24:02.767Z,96.01
2017-01-22T07:25:11.411Z,95.54
2017-01-22T07:26:20.082Z,96.2
2017-01-22T07:27:28.724Z,96.77
2017-01-22T07:28:37.375Z,96.2
2017-01-22T07:29:46.029Z,96.2
2017-01-22T07:30:54.704Z,96.3
2017-01-22T07:32:03.352Z,96.77
2017-01-22T07:33:12.001Z,96.67
2017-01-22T07:34:20.648Z,97.42
2017-01-22T07:35:29.296Z,97.71
2017-01-22T07:36:37.940Z,98.18
2017-01-22T07:37:46.586Z,98.04
2017-01-22T07:38:55.254Z,97.47
2017-01-22T07:40:03.905Z,97.56
2017-01-22T07:41:12.548Z,97.38
2017-01-22T07:42:21.197Z,97.56
2017-01-22T07:43:29.848Z,98.6
2017-01-22T07:44:38.489Z,98.51
2017-01-22T07:45:47.133Z,98.79
2017-01-22T07:46:55.783Z,98.41
2017-01-22T07:48:04.431Z,98.13
2017-01-22T07:49:13.078Z,97.85
2017-01-22T07:50:21.723Z,97.47
2017-01-22T07:51:30.372Z,97.33
2017-01-22T07:52:39.022Z,97.42
2017-01-22T07:53:47.677Z,96.58
2017-01-22T07:54:56.326Z,97.19
2017-01-22T07:56:04.975Z,97.56
2017-01-22T07:57:13.627Z,97.19
2017-01-22T07:58:22.276Z,97.47
2017-01-22T07:59:30.923Z,97.38
2017-01-22T08:00:39.569Z,98.13
2017-01-22T08:01:48.216Z,98.32
2017-01-22T08:02:56.866Z,97.75
2017-01-22T08:04:05.527Z,98.32
2017-01-22T08:05:14.181Z,97.47
2017-01-22T08:06:22.856Z,97.75
2017-01-22T08:07:31.510Z,98.13
2017-01-22T08:08:40.158Z,97.75
2017-01-22T08:09:49.184Z,97
2017-01-22T08:10:57.836Z,96.91
2017-01-22T08:12:06.496Z,96.25
2017-01-22T08:13:15.143Z,96.25
2017-01-22T08:14:23.786Z,95.87
2017-01-22T08:15:32.437Z,95.68
2017-01-22T08:16:41.087Z,95.59
2017-01-22T08:17:49.738Z,95.54
2017-01-22T08:18:58.382Z,95.73
2017-01-22T08:20:07.025Z,95.64
2017-01-22T08:21:15.689Z,95.54
2017-01-22T08:22:24.341Z,96.06
2017-01-22T08:23:32.984Z,96.34
2017-01-22T08:24:41.631Z,96.15
2017-01-22T08:25:50.277Z,96.25
2017-01-22T08:26:58.925Z,96.34
2017-01-22T08:28:07.576Z,96.44
2017-01-22T08:29:16.222Z,96.91
2017-01-22T08:30:24.875Z,96.91
2017-01-22T08:31:33.521Z,96.91
2017-01-22T08:32:42.166Z,96.81
2017-01-22T08:33:50.813Z,96.91
2017-01-22T08:34:59.461Z,96.72
2017-01-22T08:36:08.124Z,96.06
2017-01-22T08:37:16.770Z,96.44
2017-01-22T08:38:25.422Z,96.81
2017-01-22T08:39:34.074Z,96.91
2017-01-22T08:40:42.716Z,96.72
2017-01-22T08:41:51.363Z,96.62
2017-01-22T08:43:00.014Z,96.53
2017-01-22T08:44:08.674Z,96.62
2017-01-22T08:45:17.329Z,96.72
2017-01-22T08:46:25.976Z,96.62
2017-01-22T08:47:34.631Z,96.34
2017-01-22T08:48:43.280Z,96.15
2017-01-22T08:49:51.925Z,96.25
2017-01-22T08:51:00.569Z,96.72
2017-01-22T08:52:09.217Z,97
2017-01-22T08:53:17.867Z,96.62
2017-01-22T08:54:26.513Z,96.34
2017-01-22T08:55:35.160Z,96.62
2017-01-22T08:56:43.821Z,96.62
2017-01-22T08:57:52.855Z,96.34
2017-01-22T08:59:01.499Z,96.72
2017-01-22T09:00:10.556Z,97
2017-01-22T09:01:19.211Z,96.91
2017-01-22T09:02:27.863Z,96.53
2017-01-22T09:03:36.516Z,96.62
2017-01-22T09:04:45.164Z,96.62
2017-01-22T09:05:53.813Z,97.28
2017-01-22T09:07:02.466Z,97.38
2017-01-22T09:08:11.123Z,97.38
2017-01-22T09:09:19.773Z,97.38
2017-01-22T09:10:28.422Z,97.38
2017-01-22T09:11:37.069Z,96.95
2017-01-22T09:12:45.720Z,96.81
2017-01-22T09:13:54.375Z,97.52
2017-01-22T09:15:03.023Z,97.24
2017-01-22T09:16:11.673Z,97.52
2017-01-22T09:17:20.326Z,97.43
2017-01-22T09:18:28.976Z,96.86
2017-01-22T09:19:37.627Z,96.86
2017-01-22T09:20:46.278Z,96.95
2017-01-22T09:21:54.927Z,97.52
2017-01-22T09:23:03.961Z,96.77
2017-01-22T09:24:12.637Z,96.77
2017-01-22T09:25:21.281Z,96.77
2017-01-22T09:26:29.934Z,97.38
2017-01-22T09:27:38.584Z,97.57
2017-01-22T09:28:47.250Z,96.53
2017-01-22T09:29:55.903Z,96.34
2017-01-22T09:31:04.551Z,96.44
2017-01-22T09:32:13.198Z,96.63
2017-01-22T09:33:21.847Z,96.81
2017-01-22T09:34:30.496Z,96.53
2017-01-22T09:35:39.148Z,96.44
2017-01-22T09:36:47.797Z,96.25
2017-01-22T09:37:56.450Z,96.25
2017-01-22T09:39:05.101Z,96.25
2017-01-22T09:40:13.748Z,96.44
2017-01-22T09:41:22.399Z,96.91
2017-01-22T09:42:31.051Z,96.81
2017-01-22T09:43:39.706Z,96.63
2017-01-22T09:44:48.355Z,96.53
2017-01-22T09:45:57.008Z,96.25
2017-01-22T09:47:05.660Z,96.44
2017-01-22T09:48:14.340Z,96.53
2017-01-22T09:49:22.988Z,96.34
2017-01-22T09:50:31.637Z,96.25
2017-01-22T09:51:40.285Z,97.1
2017-01-22T09:52:48.939Z,97
2017-01-22T09:53:57.587Z,96.81
2017-01-22T09:55:06.263Z,96.91
2017-01-22T09:56:14.918Z,96.81
2017-01-22T09:57:23.568Z,97
2017-01-22T09:58:32.224Z,96.91
2017-01-22T09:59:40.883Z,97.48
2017-01-22T10:00:49.537Z,97.67
2017-01-22T10:01:58.210Z,96.91
2017-01-22T10:03:06.858Z,96.91
2017-01-22T10:04:15.510Z,96.91
2017-01-22T10:05:24.161Z,97
2017-01-22T10:06:32.813Z,96.72
2017-01-22T10:07:41.498Z,97
2017-01-22T10:08:50.150Z,96.81
2017-01-22T10:09:58.798Z,96.81
2017-01-22T10:11:07.454Z,96.44
2017-01-22T10:12:16.105Z,97.24
2017-01-22T10:13:24.759Z,96.58
2017-01-22T10:14:33.410Z,95.73
2017-01-22T10:15:42.066Z,95.92
2017-01-22T10:16:50.724Z,95.36
2017-01-22T10:17:59.369Z,95.36
2017-01-22T10:19:08.022Z,95.17
2017-01-22T10:20:16.677Z,95.17
2017-01-22T10:21:25.333Z,94.98
2017-01-22T10:22:33.989Z,95.03
2017-01-22T10:23:42.638Z,94.6
2017-01-22T10:24:51.284Z,94.98
2017-01-22T10:25:59.963Z,95.92
2017-01-22T10:27:08.615Z,95.92
2017-01-22T10:28:17.271Z,95.73
2017-01-22T10:29:25.924Z,95.5
2017-01-22T10:30:34.574Z,95.31
2017-01-22T10:31:43.247Z,94.18
2017-01-22T10:32:51.923Z,93.7
2017-01-22T10:34:00.578Z,93.04
2017-01-22T10:35:09.230Z,93.7
2017-01-22T10:36:17.880Z,93.7
2017-01-22T10:37:26.532Z,92.33
2017-01-22T10:38:35.180Z,92.14
2017-01-22T10:39:43.838Z,91.29
2017-01-22T10:40:52.492Z,91.86
2017-01-22T10:42:01.176Z,91.67
2017-01-22T10:43:09.832Z,91.96
2017-01-22T10:44:18.492Z,91.82
2017-01-22T10:45:27.140Z,92.19
2017-01-22T10:46:35.796Z,92.29
2017-01-22T10:47:44.446Z,92.43
2017-01-22T10:48:53.102Z,92.9
2017-01-22T10:50:01.758Z,92.71
2017-01-22T10:51:10.418Z,92.24
2017-01-22T10:52:19.072Z,93.09
2017-01-22T10:53:27.721Z,92.52
2017-01-22T10:54:36.374Z,92.14
2017-01-22T10:55:45.025Z,92.14
2017-01-22T10:56:53.681Z,91.39
2017-01-22T10:58:02.338Z,92.33
2017-01-22T10:59:10.995Z,92.24
2017-01-22T11:00:19.668Z,92.43
2017-01-22T11:01:28.329Z,91.86
2017-01-22T11:02:36.981Z,93.04
2017-01-22T11:03:45.631Z,92.94
2017-01-22T11:04:54.292Z,93.32
2017-01-22T11:06:02.957Z,93.09
2017-01-22T11:07:11.618Z,92.05
2017-01-22T11:08:20.275Z,93.23
2017-01-22T11:09:28.929Z,92.76
2017-01-22T11:10:37.585Z,94.18
2017-01-22T11:11:46.239Z,94.18
2017-01-22T11:12:54.898Z,93.7
2017-01-22T11:14:03.555Z,93.23
2017-01-22T11:15:12.587Z,92.47
2017-01-22T11:16:21.244Z,91.2
2017-01-22T11:17:29.904Z,91.58
2017-01-22T11:18:38.564Z,92.05
2017-01-22T11:19:47.600Z,92.05
2017-01-22T11:20:56.251Z,92.33
2017-01-22T11:22:04.913Z,92.43
2017-01-22T11:23:13.569Z,91.77
2017-01-22T11:24:22.229Z,91.58
2017-01-22T11:25:30.887Z,91.01
2017-01-22T11:26:39.544Z,89.97
2017-01-22T11:27:48.210Z,89.87
2017-01-22T11:28:56.868Z,89.97
2017-01-22T11:30:05.529Z,90.06
2017-01-22T11:31:14.195Z,90.16
2017-01-22T11:32:22.854Z,89.87
2017-01-22T11:33:31.506Z,91.39
2017-01-22T11:34:40.163Z,91.29
2017-01-22T11:35:48.838Z,89.97
2017-01-22T11:36:57.492Z,90.16
2017-01-22T11:38:06.151Z,89.87
2017-01-22T11:39:14.807Z,89.97
2017-01-22T11:40:23.468Z,90.82
2017-01-22T11:41:32.123Z,90.01
2017-01-22T11:42:40.817Z,90.68
2017-01-22T11:43:49.476Z,90.44
2017-01-22T11:44:58.130Z,90.44
2017-01-22T11:46:06.778Z,90.35
2017-01-22T11:47:15.435Z,90.63
2017-01-22T11:48:24.093Z,90.63
2017-01-22T11:49:32.742Z,90.82
2017-01-22T11:50:41.401Z,90.63
2017-01-22T11:51:50.059Z,90.06
2017-01-22T11:52:58.712Z,89.87
2017-01-22T11:54:07.367Z,89.97
2017-01-22T11:55:16.030Z,89.22
2017-01-22T11:56:24.716Z,89.83
2017-01-22T11:57:33.373Z,90.11
2017-01-22T11:58:42.030Z,89.26
2017-01-22T11:59:50.683Z,89.54
2017-01-22T12:00:59.334Z,88.93
2017-01-22T12:02:07.990Z,88.98
2017-01-22T12:03:16.644Z,88.98
2017-01-22T12:04:25.301Z,89.64
2017-01-22T12:05:33.960Z,90.2
2017-01-22T12:06:42.612Z,91.24
2017-01-22T12:07:51.266Z,90.11
2017-01-22T12:08:59.924Z,89.92
2017-01-22T12:10:08.579Z,90.3
2017-01-22T12:11:17.237Z,89.92
2017-01-22T12:12:25.886Z,89.45
2017-01-22T12:13:34.535Z,89.83
2017-01-22T12:14:43.191Z,89.54
2017-01-22T12:15:51.843Z,89.83
2017-01-22T12:17:00.523Z,89.64
2017-01-22T12:18:09.180Z,91.34
2017-01-22T12:19:17.828Z,90.68
2017-01-22T12:20:26.487Z,90.06
2017-01-22T12:21:35.167Z,90.39
2017-01-22T12:22:43.824Z,90.39
2017-01-22T12:23:52.479Z,90.01
2017-01-22T12:25:01.137Z,89.07
2017-01-22T12:26:09.790Z,89.54
2017-01-22T12:27:18.449Z,89.64
2017-01-22T12:28:27.102Z,89.17
2017-01-22T12:29:35.754Z,87.65
2017-01-22T12:30:44.408Z,88.31
2017-01-22T12:31:53.063Z,88.5
2017-01-22T12:33:01.717Z,90.2
2017-01-22T12:34:10.372Z,91.24
2017-01-22T12:35:19.056Z,90.35
2017-01-22T12:36:27.726Z,90.63
2017-01-22T12:37:36.418Z,91.39
2017-01-22T12:38:45.073Z,91.96
2017-01-22T12:39:53.725Z,91.96
2017-01-22T12:41:02.377Z,91.77
2017-01-22T12:42:11.027Z,90.39
2017-01-22T12:43:19.685Z,89.83
2017-01-22T12:44:28.361Z,89.26
2017-01-22T12:45:37.018Z,89.54
2017-01-22T12:46:45.673Z,90.68
2017-01-22T12:47:54.327Z,92.66
2017-01-22T12:49:02.982Z,91.77
2017-01-22T12:50:11.636Z,91.77
2017-01-22T12:51:20.292Z,92.05
2017-01-22T12:52:28.966Z,89.31
2017-01-22T12:53:37.616Z,89.03
2017-01-22T12:54:46.270Z,90.35
2017-01-22T12:55:54.933Z,89.97
2017-01-22T12:57:03.590Z,90.44
2017-01-22T12:58:12.243Z,91.53
2017-01-22T12:59:20.892Z,91.91
2017-01-22T13:00:29.545Z,91.81
2017-01-22T13:01:38.198Z,90.86
2017-01-22T13:02:46.854Z,90.77
2017-01-22T13:03:55.510Z,90.96
2017-01-22T13:05:04.171Z,90.2
2017-01-22T13:06:12.827Z,90.11
2017-01-22T13:07:21.483Z,90.3
2017-01-22T13:08:30.138Z,86.8
2017-01-22T13:09:38.798Z,88.98
2017-01-22T13:10:47.459Z,89.64
2017-01-22T13:11:56.113Z,84.34
2017-01-22T13:13:04.765Z,82.31
2017-01-22T13:14:13.421Z,82.02
2017-01-22T13:15:22.070Z,81.79
2017-01-22T13:16:30.722Z,84.53
2017-01-22T13:17:39.373Z,83.87
2017-01-22T13:18:48.023Z,83.02
2017-01-22T13:19:56.679Z,84.25
2017-01-22T13:21:05.330Z,82.54
2017-01-22T13:22:13.983Z,85.1
2017-01-22T13:23:22.638Z,82.54
2017-01-22T13:24:31.293Z,83.4
2017-01-22T13:25:39.943Z,83.21
2017-01-22T13:26:48.598Z,82.07
2017-01-22T13:27:57.253Z,80.94
2017-01-22T13:29:05.902Z,80.08
2017-01-22T13:30:14.557Z,80.08
2017-01-22T13:31:23.214Z,79.52
2017-01-22T13:32:31.867Z,80.65
2017-01-22T13:33:40.524Z,79.71
2017-01-22T13:34:49.196Z,79.05
2017-01-22T13:35:57.849Z,79.18
2017-01-22T13:37:06.507Z,79.8
2017-01-22T13:38:15.206Z,78.61
2017-01-22T13:39:23.865Z,79.09
2017-01-22T13:40:32.558Z,78.67
2017-01-22T13:41:41.211Z,78.58
2017-01-22T13:42:49.861Z,79.61
2017-01-22T13:43:58.516Z,79.18
2017-01-22T13:45:07.171Z,79.18
2017-01-22T13:46:15.829Z,79.18
2017-01-22T13:47:24.485Z,77.86
2017-01-22T13:48:33.151Z,78.42
2017-01-22T13:49:41.831Z,78.23
2017-01-22T13:50:50.484Z,77.2
2017-01-22T13:51:59.135Z,78.42
2017-01-22T13:53:07.792Z,80.51
2017-01-22T13:54:16.469Z,82.68
2017-01-22T13:55:25.117Z,81.64
2017-01-22T13:56:33.770Z,79.28
2017-01-22T13:57:42.422Z,81.55
2017-01-22T13:58:51.085Z,83.21
2017-01-22T13:59:59.739Z,83.4
2017-01-22T14:01:08.389Z,84.44
2017-01-22T14:02:17.045Z,83.49
2017-01-22T14:03:25.696Z,82.64
2017-01-22T14:04:34.354Z,84.58
2017-01-22T14:05:43.001Z,84.06
2017-01-22T14:06:51.650Z,84.67
2017-01-22T14:08:00.309Z,82.02
2017-01-22T14:09:08.964Z,83.82
2017-01-22T14:10:17.612Z,82.59
2017-01-22T14:11:26.267Z,81.36
2017-01-22T14:12:34.922Z,82.68
2017-01-22T14:13:43.576Z,84.1
2017-01-22T14:14:52.233Z,84.67
2017-01-22T14:16:00.886Z,85.05
2017-01-22T14:17:09.539Z,84.06
2017-01-22T14:18:18.190Z,82.21
2017-01-22T14:19:26.844Z,82.5
2017-01-22T14:20:35.500Z,83.06
2017-01-22T14:21:44.152Z,83.15
2017-01-22T14:22:52.803Z,81.51
2017-01-22T14:24:01.453Z,77.86
2017-01-22T14:25:10.105Z,79.94
2017-01-22T14:26:18.761Z,83.63
2017-01-22T14:27:27.414Z,85.1
2017-01-22T14:28:36.061Z,84.63
2017-01-22T14:29:44.712Z,83.91
2017-01-22T14:30:53.364Z,81.6
2017-01-22T14:32:02.014Z,81.74
2017-01-22T14:33:10.674Z,83.63
2017-01-22T14:34:19.325Z,83.3
2017-01-22T14:35:27.976Z,82.21
2017-01-22T14:36:36.637Z,82.17
2017-01-22T14:37:45.673Z,80.88
2017-01-22T14:38:54.321Z,80.98
2017-01-22T14:40:02.981Z,81.07
2017-01-22T14:41:11.633Z,83.06
2017-01-22T14:42:20.288Z,83.49
2017-01-22T14:43:28.949Z,83.97
2017-01-22T14:44:37.605Z,82.64
2017-01-22T14:45:46.260Z,80.88
2017-01-22T14:46:54.915Z,83.15